Time;durP1;ratioP1;P1;durP2;ratioP2;P2;SDS_P1;SDS_P2;PMS_P1;PMS_P2;Temp;Humidity;BMP_temperature;BMP_pressure;BME280_temperature;BME280_humidity;BME280_pressure;Samples;Min_cycle;Max_cycle;Signal;HPM_P1;HPM_P2
2023/05/18 00:01:39;;;;;;;9.00;3.03;;;9.70;99.90;;;;;;5093537;28;20157;-51
2023/05/18 00:04:07;;;;;;;7.18;2.70;;;9.80;99.90;;;;;;5093712;28;20619;-51
2023/05/18 00:06:33;;;;;;;5.53;2.65;;;;;;;;;;5086086;28;20691;-50
2023/05/18 00:08:59;;;;;;;9.40;2.90;;;9.80;99.90;;;;;;5073339;28;20177;-51
2023/05/18 00:11:24;;;;;;;5.00;3.00;;;9.70;99.90;;;;;;5073260;28;20210;-51
2023/05/18 00:13:50;;;;;;;9.20;2.70;;;9.70;99.90;;;;;;5072690;28;20197;-51
2023/05/18 00:16:16;;;;;;;5.70;2.42;;;9.50;99.90;;;;;;5088922;28;20654;-46
2023/05/18 00:18:41;;;;;;;5.05;2.60;;;9.60;99.90;;;;;;5093154;28;20158;-51
2023/05/18 00:21:07;;;;;;;7.40;3.00;;;9.70;99.90;;;;;;5093135;28;20638;-51
2023/05/18 00:23:34;;;;;;;9.95;3.13;;;;;;;;;;5090871;28;20165;-45
2023/05/18 00:26:01;;;;;;;7.15;3.05;;;9.50;99.90;;;;;;5072412;28;20174;-50
2023/05/18 00:28:28;;;;;;;8.18;2.63;;;9.40;99.90;;;;;;5072685;28;20183;-50
2023/05/18 00:30:54;;;;;;;5.88;3.28;;;9.40;99.90;;;;;;5071101;28;20217;-52
2023/05/18 00:33:20;;;;;;;6.75;3.25;;;9.30;99.90;;;;;;5073244;28;20185;-51
2023/05/18 00:35:45;;;;;;;6.43;2.40;;;9.30;99.90;;;;;;5072912;28;20173;-50
2023/05/18 00:38:14;;;;;;;9.77;2.80;;;9.30;99.90;;;;;;5072648;28;20163;-51
2023/05/18 00:40:40;;;;;;;6.15;2.53;;;9.20;99.90;;;;;;5072372;28;20212;-50
2023/05/18 00:43:05;;;;;;;7.15;3.05;;;9.20;99.90;;;;;;5071307;28;20551;-47
2023/05/18 00:45:31;;;;;;;6.30;2.63;;;9.30;99.90;;;;;;5069449;28;20173;-51
2023/05/18 00:47:57;;;;;;;5.55;2.70;;;9.30;99.90;;;;;;5070857;28;20679;-51
2023/05/18 00:50:22;;;;;;;8.48;2.72;;;9.20;99.90;;;;;;5071811;28;20208;-51
2023/05/18 00:52:50;;;;;;;5.72;2.78;;;9.20;99.90;;;;;;5072458;28;20166;-51
2023/05/18 00:55:15;;;;;;;8.23;2.78;;;9.30;99.90;;;;;;5072149;28;20257;-50
2023/05/18 00:57:43;;;;;;;5.95;3.30;;;9.30;99.90;;;;;;5085717;28;20696;-52
2023/05/18 01:00:12;;;;;;;7.47;2.65;;;9.30;99.90;;;;;;5070613;28;20213;-51
2023/05/18 01:02:41;;;;;;;7.63;2.75;;;9.30;99.90;;;;;;5070129;28;20174;-50
2023/05/18 01:05:09;;;;;;;11.73;3.13;;;9.40;99.90;;;;;;5071823;28;20178;-52
2023/05/18 01:07:36;;;;;;;6.45;2.72;;;9.50;99.90;;;;;;5072200;28;20178;-49
2023/05/18 01:10:02;;;;;;;6.07;2.40;;;9.40;99.90;;;;;;5071860;28;20194;-47
2023/05/18 01:12:36;;;;;;;7.60;2.83;;;9.40;99.90;;;;;;5071988;28;20220;-49
2023/05/18 01:15:12;;;;;;;8.68;3.38;;;9.40;99.90;;;;;;5069933;28;20534;-49
2023/05/18 01:17:59;;;;;;;8.20;2.58;;;9.40;99.90;;;;;;5070526;28;20185;-47
2023/05/18 01:20:41;;;;;;;4.07;2.53;;;9.20;99.90;;;;;;5071930;28;20170;-51
2023/05/18 01:23:16;;;;;;;6.55;2.72;;;9.40;99.90;;;;;;5072017;28;20173;-51
2023/05/18 01:25:54;;;;;;;7.38;2.70;;;9.10;99.90;;;;;;5071696;28;20165;-50
2023/05/18 01:28:26;;;;;;;8.35;2.50;;;9.10;99.90;;;;;;5072218;28;20244;-51
2023/05/18 01:30:53;;;;;;;8.55;3.00;;;9.00;99.90;;;;;;5069936;28;20235;-50
2023/05/18 01:33:19;;;;;;;5.68;2.63;;;;;;;;;;5069807;28;20219;-51
2023/05/18 01:35:48;;;;;;;6.30;2.72;;;8.80;99.90;;;;;;5070873;28;20174;-50
2023/05/18 01:38:17;;;;;;;5.18;2.83;;;8.80;99.90;;;;;;5071183;28;20166;-51
2023/05/18 01:41:07;;;;;;;7.88;3.20;;;8.90;99.90;;;;;;5070999;28;20165;-52
2023/05/18 01:43:35;;;;;;;7.43;2.92;;;8.90;99.90;;;;;;5070332;28;20174;-50
2023/05/18 01:46:19;;;;;;;4.68;2.90;;;8.90;99.90;;;;;;5088071;28;20185;-51
2023/05/18 01:48:52;;;;;;;6.97;3.20;;;9.00;99.90;;;;;;5087657;28;20171;-51
2023/05/18 01:51:20;;;;;;;7.18;3.05;;;8.80;99.90;;;;;;5069398;28;20209;-50
2023/05/18 01:53:55;;;;;;;5.93;3.03;;;8.70;99.90;;;;;;5070969;28;20205;-52
2023/05/18 01:56:22;;;;;;;11.70;2.85;;;;;;;;;;5071263;28;20211;-51
2023/05/18 01:58:47;;;;;;;8.23;3.60;;;;;;;;;;5070098;28;20161;-50
2023/05/18 02:01:14;;;;;;;7.30;2.88;;;8.90;99.90;;;;;;5070535;28;20174;-46
2023/05/18 02:03:42;;;;;;;7.32;2.90;;;;;;;;;;5070857;28;20534;-46
2023/05/18 02:06:08;;;;;;;7.55;3.53;;;;;;;;;;5070294;28;20206;-47
2023/05/18 02:08:34;;;;;;;14.32;4.18;;;8.90;99.90;;;;;;5068664;28;20181;-45
2023/05/18 02:11:00;;;;;;;8.18;3.30;;;8.90;99.90;;;;;;5074686;28;20213;-49
2023/05/18 02:13:25;;;;;;;9.35;3.30;;;8.90;99.90;;;;;;5074836;28;20631;-47
2023/05/18 02:15:51;;;;;;;4.38;2.40;;;8.80;99.90;;;;;;5092115;28;20177;-46
2023/05/18 02:18:17;;;;;;;9.13;3.20;;;;;;;;;;5095410;28;20525;-46
2023/05/18 02:20:42;;;;;;;9.85;2.97;;;8.60;99.90;;;;;;5086671;28;20185;-46
2023/05/18 02:23:10;;;;;;;7.30;2.97;;;8.70;99.90;;;;;;5073164;28;20184;-47
2023/05/18 02:25:36;;;;;;;7.50;3.13;;;8.70;99.90;;;;;;5074506;28;20173;-46
2023/05/18 02:28:01;;;;;;;5.93;2.88;;;;;;;;;;5074866;28;20170;-45
2023/05/18 02:30:30;;;;;;;4.30;2.95;;;8.70;99.90;;;;;;5088211;28;20300;-48
2023/05/18 02:32:56;;;;;;;6.13;3.13;;;8.70;99.90;;;;;;5094983;28;20260;-48
2023/05/18 02:35:22;;;;;;;4.20;2.67;;;;;;;;;;5094976;28;20192;-45
2023/05/18 02:37:48;;;;;;;6.50;3.08;;;8.70;99.90;;;;;;5080788;28;20219;-48
2023/05/18 02:40:15;;;;;;;6.75;3.03;;;8.60;99.90;;;;;;5073217;28;20231;-48
2023/05/18 02:42:41;;;;;;;7.53;2.90;;;8.50;99.90;;;;;;5074112;28;20520;-48
2023/05/18 02:45:07;;;;;;;6.55;3.28;;;;;;;;;;5085179;28;20177;-50
2023/05/18 02:47:33;;;;;;;6.60;3.05;;;8.60;99.90;;;;;;5094428;28;20505;-45
2023/05/18 02:49:59;;;;;;;7.60;2.85;;;8.60;99.90;;;;;;5094372;28;20196;-48
2023/05/18 02:52:24;;;;;;;7.10;3.05;;;8.50;99.90;;;;;;5089608;28;20200;-46
2023/05/18 02:54:53;;;;;;;6.05;3.08;;;8.50;99.90;;;;;;5074348;28;20162;-47
2023/05/18 02:57:20;;;;;;;9.75;2.88;;;8.40;99.90;;;;;;5074513;28;20173;-46
2023/05/18 02:59:45;;;;;;;6.20;3.03;;;8.40;99.90;;;;;;5090830;28;20177;-47
2023/05/18 03:02:15;;;;;;;4.68;2.85;;;;;;;;;;5094094;28;20303;-48
2023/05/18 03:04:41;;;;;;;8.18;2.67;;;8.50;99.90;;;;;;5094171;28;20169;-46
2023/05/18 03:07:06;;;;;;;4.95;2.53;;;8.40;99.90;;;;;;5093817;28;20273;-47
2023/05/18 03:09:32;;;;;;;9.30;3.10;;;;;;;;;;5088690;28;20174;-47
2023/05/18 03:12:00;;;;;;;8.60;3.45;;;;;;;;;;5073791;28;20727;-48
2023/05/18 03:14:25;;;;;;;9.15;2.92;;;;;;;;;;5072532;28;20174;-47
2023/05/18 03:16:53;;;;;;;11.18;2.67;;;;;;;;;;5079494;28;20177;-47
2023/05/18 03:19:19;;;;;;;7.22;3.22;;;8.30;99.90;;;;;;5093827;28;20618;-48
2023/05/18 03:21:44;;;;;;;7.50;2.90;;;8.30;99.90;;;;;;5092826;28;20173;-47
2023/05/18 03:24:13;;;;;;;4.57;2.75;;;8.30;99.90;;;;;;5091370;28;20161;-48
2023/05/18 03:26:40;;;;;;;7.45;3.35;;;8.20;99.90;;;;;;5084341;28;20227;-45
2023/05/18 03:29:06;;;;;;;6.75;3.38;;;8.20;99.90;;;;;;5088936;28;20573;-46
2023/05/18 03:31:31;;;;;;;12.13;4.93;;;8.20;99.90;;;;;;5093563;28;20193;-46
2023/05/18 03:33:57;;;;;;;8.40;3.10;;;8.10;99.90;;;;;;5093640;28;20165;-46
2023/05/18 03:36:25;;;;;;;10.18;3.90;;;8.20;99.90;;;;;;5093532;28;20173;-47
2023/05/18 03:38:50;;;;;;;8.15;2.88;;;8.20;99.90;;;;;;5093956;28;20755;-52
2023/05/18 03:41:16;;;;;;;8.50;3.22;;;8.30;99.90;;;;;;5093729;28;20173;-51
2023/05/18 03:43:41;;;;;;;6.30;3.22;;;8.20;99.90;;;;;;5079988;28;20185;-51
2023/05/18 03:46:07;;;;;;;5.93;3.28;;;8.10;99.90;;;;;;5073166;28;20530;-51
2023/05/18 03:48:32;;;;;;;8.80;3.38;;;8.20;99.90;;;;;;5071651;28;20635;-51
2023/05/18 03:50:58;;;;;;;8.70;3.40;;;8.30;99.90;;;;;;5072893;28;20209;-51
2023/05/18 03:53:23;;;;;;;11.95;3.63;;;8.40;99.90;;;;;;5072832;28;20162;-51
2023/05/18 03:55:50;;;;;;;9.52;3.50;;;8.20;99.90;;;;;;5073330;28;20223;-49
2023/05/18 03:58:16;;;;;;;6.05;2.83;;;8.30;99.90;;;;;;5073244;28;20261;-51
2023/05/18 04:00:41;;;;;;;9.70;3.60;;;8.20;99.90;;;;;;5071585;28;20257;-51
2023/05/18 04:03:11;;;;;;;7.07;3.10;;;8.30;99.90;;;;;;5072730;28;20197;-51
2023/05/18 04:05:37;;;;;;;7.82;2.83;;;8.40;99.90;;;;;;5072663;28;20218;-51
2023/05/18 04:08:03;;;;;;;6.57;2.95;;;8.40;99.90;;;;;;5072815;28;20224;-50
2023/05/18 04:10:30;;;;;;;5.82;2.70;;;8.50;99.90;;;;;;5070595;28;20213;-51
2023/05/18 04:12:55;;;;;;;7.38;3.15;;;8.50;99.90;;;;;;5072398;28;20194;-52
2023/05/18 04:15:21;;;;;;;7.25;3.17;;;;;;;;;;5072680;28;20194;-49
2023/05/18 04:17:50;;;;;;;5.38;2.97;;;8.60;99.90;;;;;;5072891;28;20710;-50
2023/05/18 04:20:16;;;;;;;7.20;3.63;;;8.70;99.90;;;;;;5072262;28;20169;-50
2023/05/18 04:22:45;;;;;;;12.60;4.25;;;8.60;99.90;;;;;;5072193;28;20162;-51
2023/05/18 04:25:11;;;;;;;6.78;2.97;;;8.70;99.90;;;;;;5072132;28;20158;-50
2023/05/18 04:27:38;;;;;;;8.25;3.95;;;;;;;;;;5072016;28;20529;-50
2023/05/18 04:30:07;;;;;;;8.63;3.40;;;8.90;99.90;;;;;;5091023;28;20197;-48
2023/05/18 04:32:35;;;;;;;13.32;3.78;;;8.70;99.90;;;;;;5091475;28;20173;-48
2023/05/18 04:35:07;;;;;;;10.38;3.53;;;8.70;99.90;;;;;;5092527;28;20180;-48
2023/05/18 04:37:33;;;;;;;10.43;3.83;;;8.70;99.90;;;;;;5073477;28;20174;-50
2023/05/18 04:40:01;;;;;;;7.13;3.97;;;;;;;;;;5079053;28;20200;-48
2023/05/18 04:42:29;;;;;;;15.43;4.15;;;8.90;99.90;;;;;;5066151;28;20709;-46
2023/05/18 04:44:55;;;;;;;9.30;3.30;;;8.80;99.90;;;;;;5069637;28;20190;-51
2023/05/18 04:47:22;;;;;;;10.52;3.30;;;;;;;;;;5071927;28;20489;-45
2023/05/18 04:49:51;;;;;;;6.55;3.47;;;8.90;99.90;;;;;;5072153;28;20169;-51
2023/05/18 04:52:17;;;;;;;9.68;4.25;;;9.10;99.90;;;;;;5071977;28;20306;-51
2023/05/18 04:54:43;;;;;;;6.65;3.05;;;;;;;;;;5069021;28;20652;-52
2023/05/18 04:57:08;;;;;;;9.13;3.15;;;9.20;99.90;;;;;;5065738;28;20188;-50
2023/05/18 04:59:36;;;;;;;9.75;3.53;;;9.40;99.90;;;;;;5071876;28;20162;-50
2023/05/18 05:02:02;;;;;;;10.32;3.53;;;9.50;99.90;;;;;;5071427;28;20162;-50
2023/05/18 05:04:28;;;;;;;10.32;3.70;;;9.70;99.90;;;;;;5071463;28;20168;-51
2023/05/18 05:06:54;;;;;;;7.65;3.53;;;9.70;99.90;;;;;;5071607;28;20209;-51
2023/05/18 05:09:20;;;;;;;8.60;3.75;;;9.70;99.90;;;;;;5070601;28;20170;-51
2023/05/18 05:11:46;;;;;;;9.65;4.13;;;;;;;;;;5070916;28;20212;-50
2023/05/18 05:14:12;;;;;;;8.18;3.88;;;;;;;;;;5070718;28;20212;-46
2023/05/18 05:16:38;;;;;;;5.57;3.22;;;9.80;99.90;;;;;;5071044;28;20206;-50
2023/05/18 05:19:04;;;;;;;12.45;4.95;;;10.00;99.90;;;;;;5071337;28;20599;-51
2023/05/18 05:21:30;;;;;;;9.35;3.67;;;;;;;;;;5069905;28;20252;-50
2023/05/18 05:23:56;;;;;;;7.40;3.25;;;;;;;;;;5071555;28;20174;-50
2023/05/18 05:26:22;;;;;;;8.00;3.22;;;10.10;99.90;;;;;;5065173;28;20251;-50
2023/05/18 05:28:48;;;;;;;5.20;3.60;;;;;;;;;;5058453;28;20178;-51
2023/05/18 05:31:13;;;;;;;13.63;3.95;;;10.20;99.90;;;;;;5070950;28;20355;-51
2023/05/18 05:33:40;;;;;;;8.43;3.50;;;10.30;99.90;;;;;;5071091;28;20193;-51
2023/05/18 05:36:07;;;;;;;5.30;3.10;;;10.30;99.90;;;;;;5070586;28;20196;-52
2023/05/18 05:38:33;;;;;;;8.07;4.10;;;10.40;99.90;;;;;;5069564;28;20638;-51
2023/05/18 05:40:58;;;;;;;8.32;3.63;;;10.30;99.90;;;;;;5070938;28;20287;-50
2023/05/18 05:43:24;;;;;;;6.05;3.25;;;10.30;99.90;;;;;;5073083;28;20208;-45
2023/05/18 05:45:50;;;;;;;8.80;4.45;;;;;;;;;;5089389;28;20177;-46
2023/05/18 05:48:16;;;;;;;7.53;3.88;;;10.20;99.90;;;;;;5091399;28;20161;-45
2023/05/18 05:50:41;;;;;;;13.65;3.60;;;10.40;99.90;;;;;;5074370;28;20202;-46
2023/05/18 05:53:07;;;;;;;7.97;3.45;;;10.40;99.90;;;;;;5072327;28;20173;-45
2023/05/18 05:55:39;;;;;;;6.20;4.10;;;10.40;99.90;;;;;;5067963;28;20201;-46
2023/05/18 05:58:05;;;;;;;6.97;3.38;;;;;;;;;;5071594;28;20170;-46
2023/05/18 06:00:31;;;;;;;11.95;3.50;;;;;;;;;;5068722;28;20178;-45
2023/05/18 06:02:58;;;;;;;8.25;3.40;;;;;;;;;;5070307;28;20177;-45
2023/05/18 06:05:23;;;;;;;8.23;3.50;;;10.60;99.90;;;;;;5070409;28;20158;-46
2023/05/18 06:07:49;;;;;;;8.93;3.60;;;10.60;99.90;;;;;;5071048;28;20231;-46
2023/05/18 06:10:15;;;;;;;11.27;3.85;;;10.50;99.90;;;;;;5070708;28;20687;-46
2023/05/18 06:12:40;;;;;;;8.75;3.42;;;10.70;99.90;;;;;;5069613;28;20174;-45
2023/05/18 06:15:07;;;;;;;9.27;3.50;;;;;;;;;;5069162;28;20178;-46
2023/05/18 06:17:32;;;;;;;7.30;3.53;;;10.60;99.90;;;;;;5070496;28;20181;-45
2023/05/18 06:19:58;;;;;;;7.90;3.45;;;;;;;;;;5070419;28;20166;-46
2023/05/18 06:22:24;;;;;;;6.72;2.90;;;10.80;99.90;;;;;;5070624;28;20170;-46
2023/05/18 06:24:50;;;;;;;6.18;2.75;;;;;;;;;;5070938;28;20211;-46
2023/05/18 06:27:17;;;;;;;8.38;3.10;;;10.90;99.90;;;;;;5071247;28;20170;-46
2023/05/18 06:29:43;;;;;;;8.18;3.50;;;;;;;;;;5070231;28;20296;-45
2023/05/18 06:32:11;;;;;;;13.73;4.72;;;11.30;99.90;;;;;;5069059;28;20546;-46
2023/05/18 06:34:36;;;;;;;9.55;3.58;;;11.30;99.90;;;;;;5070346;28;20177;-46
2023/05/18 06:37:02;;;;;;;9.13;3.63;;;11.40;99.90;;;;;;5070235;28;20166;-47
2023/05/18 06:39:28;;;;;;;9.45;4.15;;;11.40;99.90;;;;;;5070773;28;20523;-46
2023/05/18 06:41:53;;;;;;;7.97;4.93;;;11.60;99.90;;;;;;5070313;28;20173;-45
2023/05/18 06:44:19;;;;;;;6.85;3.35;;;;;;;;;;5071083;28;20177;-46
2023/05/18 06:46:46;;;;;;;10.13;3.90;;;11.80;99.90;;;;;;5070769;28;20177;-47
2023/05/18 06:49:12;;;;;;;18.60;4.50;;;;;;;;;;5069309;28;20200;-46
2023/05/18 06:51:38;;;;;;;13.13;4.65;;;;;;;;;;5068885;28;20737;-47
2023/05/18 06:54:04;;;;;;;11.75;4.10;;;;;;;;;;5070337;28;20526;-48
2023/05/18 06:56:30;;;;;;;5.53;3.22;;;;;;;;;;5071907;28;20169;-50
2023/05/18 06:58:56;;;;;;;7.20;3.50;;;11.80;99.90;;;;;;5072146;28;20170;-51
2023/05/18 07:01:21;;;;;;;11.10;3.58;;;12.00;99.90;;;;;;5073604;28;20209;-51
2023/05/18 07:03:47;;;;;;;9.65;3.40;;;;;;;;;;5073861;28;20658;-50
2023/05/18 07:06:13;;;;;;;7.93;4.00;;;12.00;99.90;;;;;;5080937;28;20282;-49
2023/05/18 07:08:39;;;;;;;11.40;3.70;;;12.20;99.90;;;;;;5072348;28;20174;-50
2023/05/18 07:11:05;;;;;;;9.52;3.78;;;;;;;;;;5059409;28;20230;-51
2023/05/18 07:13:31;;;;;;;8.82;4.53;;;12.00;99.90;;;;;;5067294;28;20173;-47
2023/05/18 07:15:57;;;;;;;7.03;4.38;;;;;;;;;;5071204;28;20631;-46
2023/05/18 07:18:23;;;;;;;10.40;3.75;;;12.00;99.90;;;;;;5069216;28;20181;-47
2023/05/18 07:20:49;;;;;;;8.63;3.72;;;;;;;;;;5074372;28;20606;-48
2023/05/18 07:23:15;;;;;;;10.07;4.00;;;12.40;99.90;;;;;;5074572;28;20181;-52
2023/05/18 07:25:40;;;;;;;9.02;3.85;;;12.50;99.90;;;;;;5073855;28;20240;-51
2023/05/18 07:28:06;;;;;;;8.95;3.80;;;;;;;;;;5059607;28;20194;-48
2023/05/18 07:30:33;;;;;;;9.63;4.18;;;;;;;;;;5064455;28;20259;-52
2023/05/18 07:32:58;;;;;;;8.07;4.78;;;12.40;99.90;;;;;;5073540;28;20666;-51
2023/05/18 07:35:25;;;;;;;7.95;3.83;;;12.70;99.90;;;;;;5073501;28;20174;-51
2023/05/18 07:37:52;;;;;;;7.50;3.90;;;12.80;99.90;;;;;;5073317;28;20540;-50
2023/05/18 07:40:18;;;;;;;12.23;5.15;;;12.90;99.90;;;;;;5071267;28;20642;-51
2023/05/18 07:42:44;;;;;;;11.75;4.40;;;13.00;99.90;;;;;;5072906;28;20537;-52
2023/05/18 07:45:10;;;;;;;11.13;4.25;;;13.20;99.90;;;;;;5072838;28;20166;-48
2023/05/18 07:47:36;;;;;;;9.70;3.80;;;13.20;99.90;;;;;;5072608;28;20209;-52
2023/05/18 07:50:02;;;;;;;7.25;3.85;;;13.20;99.90;;;;;;5073422;28;20206;-46
2023/05/18 07:52:27;;;;;;;9.27;3.95;;;13.30;99.90;;;;;;5071638;28;20220;-46
2023/05/18 07:54:56;;;;;;;9.30;4.28;;;13.50;99.90;;;;;;5057715;28;20582;-51
2023/05/18 07:57:22;;;;;;;12.35;4.97;;;13.50;99.90;;;;;;5069967;28;20173;-50
2023/05/18 07:59:48;;;;;;;8.00;4.00;;;;;;;;;;5068253;28;20173;-45
2023/05/18 08:02:15;;;;;;;9.63;3.97;;;13.60;99.90;;;;;;5052698;28;20166;-48
2023/05/18 08:04:41;;;;;;;7.93;3.90;;;;;;;;;;5065766;28;20177;-48
2023/05/18 08:07:07;;;;;;;9.27;3.40;;;;;;;;;;5071930;28;20213;-46
2023/05/18 08:09:33;;;;;;;9.40;3.97;;;14.00;99.90;;;;;;5072041;28;20639;-50
2023/05/18 08:11:59;;;;;;;9.75;3.75;;;13.90;99.90;;;;;;5072132;28;20255;-51
2023/05/18 08:14:25;;;;;;;8.57;3.55;;;14.10;99.90;;;;;;5071157;28;20197;-47
2023/05/18 08:16:50;;;;;;;14.85;4.20;;;14.10;99.90;;;;;;5071872;28;20209;-50
2023/05/18 08:19:16;;;;;;;8.75;3.33;;;14.20;99.90;;;;;;5071298;28;20215;-51
2023/05/18 08:21:44;;;;;;;6.53;3.15;;;14.40;99.90;;;;;;5073904;28;20189;-51
2023/05/18 08:24:10;;;;;;;5.25;3.03;;;;;;;;;;5066392;28;20173;-46
2023/05/18 08:26:36;;;;;;;9.13;3.88;;;14.40;99.90;;;;;;5067718;28;20506;-46
2023/05/18 08:29:08;;;;;;;9.35;3.88;;;14.70;99.90;;;;;;5051794;28;20690;-48
2023/05/18 08:31:38;;;;;;;7.40;2.97;;;14.90;99.90;;;;;;5071559;28;20241;-50
2023/05/18 08:34:04;;;;;;;9.63;3.47;;;14.90;99.90;;;;;;5070586;28;20615;-50
2023/05/18 08:36:31;;;;;;;8.20;3.15;;;15.10;99.90;;;;;;5071610;28;20182;-51
2023/05/18 08:38:58;;;;;;;8.35;3.05;;;;;;;;;;5070564;28;20541;-47
2023/05/18 08:41:50;;;;;;;9.85;3.85;;;15.20;99.90;;;;;;5069577;28;20264;-50
2023/05/18 08:44:28;;;;;;;8.85;4.13;;;14.90;99.90;;;;;;5061777;28;20174;-51
2023/05/18 08:46:55;;;;;;;8.52;3.13;;;14.90;99.90;;;;;;5071883;28;20635;-50
2023/05/18 08:49:21;;;;;;;8.25;2.83;;;;;;;;;;5064365;28;20193;-51
2023/05/18 08:51:59;;;;;;;4.05;2.40;;;15.30;99.90;;;;;;5063997;28;20780;-51
2023/05/18 08:54:25;;;;;;;6.97;3.20;;;;;;;;;;5069098;28;20181;-50
2023/05/18 08:56:52;;;;;;;7.82;3.80;;;;;;;;;;5071278;28;20181;-46
2023/05/18 08:59:23;;;;;;;9.25;2.92;;;15.20;99.90;;;;;;5074704;28;20169;-46
2023/05/18 09:01:51;;;;;;;5.40;2.67;;;15.40;99.90;;;;;;5091573;28;20165;-45
2023/05/18 09:04:18;;;;;;;10.52;2.90;;;;;;;;;;5090744;28;20169;-45
2023/05/18 09:06:46;;;;;;;10.55;3.30;;;15.80;99.90;;;;;;5069422;28;20218;-45
2023/05/18 09:09:13;;;;;;;10.05;3.22;;;15.50;96.80;;;;;;5070917;28;20162;-45
2023/05/18 09:11:40;;;;;;;10.02;3.38;;;16.20;96.60;;;;;;5068683;28;20689;-45
2023/05/18 09:14:06;;;;;;;9.10;2.55;;;;;;;;;;5055928;28;20299;-51
2023/05/18 09:16:32;;;;;;;7.68;2.60;;;;;;;;;;5067506;28;20188;-49
2023/05/18 09:18:59;;;;;;;6.40;2.92;;;16.50;98.40;;;;;;5075936;28;20201;-49
2023/05/18 09:21:25;;;;;;;8.65;3.03;;;16.70;97.90;;;;;;5071103;28;20174;-50
2023/05/18 09:23:51;;;;;;;9.45;2.53;;;;;;;;;;5071813;28;20166;-48
2023/05/18 09:26:19;;;;;;;10.20;2.72;;;16.40;94.00;;;;;;5072022;28;20245;-51
2023/05/18 09:28:45;;;;;;;9.63;3.10;;;16.20;92.30;;;;;;5072350;28;20170;-51
2023/05/18 09:31:16;;;;;;;7.55;2.83;;;16.50;92.10;;;;;;5071643;28;20267;-51
2023/05/18 09:33:44;;;;;;;13.02;2.90;;;16.00;93.30;;;;;;5071354;28;20154;-51
2023/05/18 09:36:14;;;;;;;6.00;2.63;;;16.00;93.30;;;;;;5071431;28;20220;-51
2023/05/18 09:38:44;;;;;;;6.40;2.78;;;16.30;92.80;;;;;;5071479;28;20189;-50
2023/05/18 09:41:11;;;;;;;7.03;2.72;;;16.50;91.60;;;;;;5071134;28;20253;-51
2023/05/18 09:43:37;;;;;;;12.07;3.00;;;16.50;93.10;;;;;;5071260;28;20234;-51
2023/05/18 09:46:07;;;;;;;9.45;2.85;;;16.60;93.20;;;;;;5071257;28;20177;-50
2023/05/18 09:48:40;;;;;;;6.13;3.15;;;16.50;91.30;;;;;;5071341;28;20158;-49
2023/05/18 09:51:06;;;;;;;8.98;3.13;;;16.80;92.70;;;;;;5071297;28;20210;-51
2023/05/18 09:53:38;;;;;;;5.75;3.20;;;16.50;91.90;;;;;;5071409;28;20205;-48
2023/05/18 09:56:10;;;;;;;12.80;3.25;;;;;;;;;;5071621;28;20178;-49
2023/05/18 09:58:38;;;;;;;8.20;2.97;;;16.50;91.60;;;;;;5071502;28;20187;-51
2023/05/18 10:01:04;;;;;;;5.55;3.17;;;16.80;91.50;;;;;;5071315;28;20260;-46
2023/05/18 10:03:37;;;;;;;6.22;2.40;;;17.10;91.20;;;;;;5071666;28;20568;-48
2023/05/18 10:06:07;;;;;;;10.40;3.88;;;17.20;90.50;;;;;;5071090;28;20312;-49
2023/05/18 10:08:34;;;;;;;6.05;2.50;;;17.50;91.40;;;;;;5071393;28;20170;-46
2023/05/18 10:11:00;;;;;;;6.25;2.85;;;17.40;91.30;;;;;;5069776;28;20576;-46
2023/05/18 10:13:30;;;;;;;7.88;3.05;;;18.00;91.30;;;;;;5071617;28;20280;-47
2023/05/18 10:15:57;;;;;;;6.40;2.92;;;18.00;91.50;;;;;;5071236;28;20161;-46
2023/05/18 10:18:25;;;;;;;5.03;2.47;;;17.90;90.70;;;;;;5071148;28;20647;-46
2023/05/18 10:20:53;;;;;;;10.38;3.55;;;17.90;91.50;;;;;;5071075;28;20207;-46
2023/05/18 10:23:20;;;;;;;7.53;2.85;;;18.10;91.00;;;;;;5071025;28;20166;-46
2023/05/18 10:25:48;;;;;;;7.80;2.92;;;18.40;90.70;;;;;;5071611;28;20180;-45
2023/05/18 10:28:29;;;;;;;6.07;3.03;;;18.20;87.60;;;;;;5087026;28;20513;-45
2023/05/18 10:30:56;;;;;;;10.02;3.25;;;18.60;87.00;;;;;;5070200;28;20568;-46
2023/05/18 10:33:23;;;;;;;5.80;2.65;;;18.60;86.80;;;;;;5073101;28;20263;-45
2023/05/18 10:35:50;;;;;;;7.13;2.53;;;18.40;88.00;;;;;;5073453;28;20174;-46
2023/05/18 10:38:20;;;;;;;5.15;2.67;;;;;;;;;;5073534;28;20249;-45
2023/05/18 10:40:48;;;;;;;10.63;3.70;;;18.70;88.40;;;;;;5073738;28;20188;-45
2023/05/18 10:43:16;;;;;;;6.32;2.83;;;18.20;88.90;;;;;;5075499;28;20598;-46
2023/05/18 10:45:46;;;;;;;6.20;3.03;;;18.40;89.50;;;;;;5074673;28;20180;-46
2023/05/18 10:48:13;;;;;;;8.95;2.75;;;17.90;90.60;;;;;;5073780;28;20222;-46
2023/05/18 10:50:40;;;;;;;6.22;3.25;;;17.80;90.00;;;;;;5072908;28;20190;-46
2023/05/18 10:53:06;;;;;;;10.65;3.53;;;;;;;;;;5071488;28;20603;-48
2023/05/18 10:55:31;;;;;;;6.32;2.80;;;18.20;90.70;;;;;;5072729;28;20543;-49
2023/05/18 10:58:05;;;;;;;4.68;2.80;;;18.30;90.00;;;;;;5073030;28;20170;-46
2023/05/18 11:00:34;;;;;;;10.20;3.65;;;18.60;89.50;;;;;;5071548;28;20176;-45
2023/05/18 11:03:01;;;;;;;8.27;3.65;;;18.70;88.50;;;;;;5073713;28;20273;-45
2023/05/18 11:05:26;;;;;;;8.13;3.25;;;18.40;89.10;;;;;;5074322;28;20163;-46
2023/05/18 11:08:03;;;;;;;9.32;3.22;;;18.60;87.60;;;;;;5074356;28;20174;-45
2023/05/18 11:10:47;;;;;;;9.60;3.10;;;19.00;89.60;;;;;;5074212;28;20667;-51
2023/05/18 11:13:13;;;;;;;8.82;2.75;;;18.40;88.20;;;;;;5074294;28;20240;-45
2023/05/18 11:15:54;;;;;;;6.93;3.22;;;18.00;87.50;;;;;;5073560;28;20261;-46
2023/05/18 11:18:35;;;;;;;9.80;2.45;;;18.00;87.30;;;;;;5072783;28;20590;-49
2023/05/18 11:21:01;;;;;;;9.25;3.28;;;18.40;87.10;;;;;;5072715;28;20170;-48
2023/05/18 11:23:31;;;;;;;6.03;3.05;;;18.30;85.40;;;;;;5071906;28;20590;-48
2023/05/18 11:26:01;;;;;;;9.60;3.28;;;17.60;86.10;;;;;;5074060;28;20696;-45
2023/05/18 11:28:27;;;;;;;7.20;3.03;;;17.90;89.30;;;;;;5074196;28;20185;-47
2023/05/18 11:30:53;;;;;;;7.82;2.97;;;17.40;86.40;;;;;;5072434;28;20201;-50
2023/05/18 11:33:29;;;;;;;10.13;3.13;;;17.90;90.10;;;;;;5073610;28;20196;-48
2023/05/18 11:36:03;;;;;;;7.50;3.20;;;18.60;86.60;;;;;;5072388;28;20234;-46
2023/05/18 11:38:45;;;;;;;5.95;3.28;;;18.70;88.20;;;;;;5072383;28;20176;-46
2023/05/18 11:41:29;;;;;;;7.68;3.30;;;18.80;88.30;;;;;;5071863;28;20261;-46
2023/05/18 11:44:21;;;;;;;6.70;2.95;;;18.60;88.10;;;;;;5072168;28;20526;-46
2023/05/18 11:46:52;;;;;;;8.93;2.97;;;18.30;88.50;;;;;;5069910;28;20553;-45
2023/05/18 11:49:21;;;;;;;8.77;3.30;;;18.10;84.70;;;;;;5071842;28;20650;-46
2023/05/18 11:52:20;;;;;;;8.63;3.70;;;18.60;85.40;;;;;;5072518;28;20263;-49
2023/05/18 11:54:54;;;;;;;6.82;3.30;;;19.10;85.00;;;;;;5072291;28;20173;-45
2023/05/18 11:57:39;;;;;;;8.10;3.25;;;19.40;84.50;;;;;;5071591;28;20208;-45
2023/05/18 12:00:12;;;;;;;8.63;2.88;;;19.70;83.60;;;;;;5071986;28;20331;-45
2023/05/18 12:02:41;;;;;;;10.13;3.47;;;19.50;83.60;;;;;;5072477;28;20566;-45
2023/05/18 12:05:08;;;;;;;7.60;3.88;;;19.30;85.40;;;;;;5072713;28;20170;-45
2023/05/18 12:07:35;;;;;;;9.68;3.33;;;19.50;83.70;;;;;;5071437;28;20170;-45
2023/05/18 12:10:03;;;;;;;7.80;3.05;;;19.50;86.00;;;;;;5071704;28;20166;-45
2023/05/18 12:12:28;;;;;;;7.97;3.45;;;19.30;86.20;;;;;;5071348;28;20535;-47
2023/05/18 12:14:57;;;;;;;6.97;3.20;;;19.30;86.10;;;;;;5071427;28;20165;-45
2023/05/18 12:17:36;;;;;;;7.03;3.30;;;19.00;87.10;;;;;;5071265;28;20181;-45
2023/05/18 12:20:02;;;;;;;9.75;3.55;;;;;;;;;;5071695;28;20662;-45
2023/05/18 12:22:28;;;;;;;11.60;3.50;;;18.60;89.90;;;;;;5072761;28;20658;-47
2023/05/18 12:24:53;;;;;;;11.20;3.17;;;18.40;88.70;;;;;;5071634;28;20170;-51
2023/05/18 12:27:21;;;;;;;8.65;3.72;;;18.80;89.60;;;;;;5072042;28;20174;-47
2023/05/18 12:29:47;;;;;;;6.82;3.13;;;;;;;;;;5071839;28;20180;-50
2023/05/18 12:32:13;;;;;;;10.05;3.60;;;19.50;87.70;;;;;;5073198;28;20284;-45
2023/05/18 12:34:39;;;;;;;11.40;3.22;;;19.60;90.10;;;;;;5072661;28;20158;-45
2023/05/18 12:37:06;;;;;;;9.95;3.15;;;19.60;85.50;;;;;;5088530;28;20174;-45
2023/05/18 12:39:32;;;;;;;8.65;3.47;;;19.70;85.10;;;;;;5072524;28;20557;-45
2023/05/18 12:42:08;;;;;;;11.07;4.03;;;20.00;84.10;;;;;;5072556;28;20176;-45
2023/05/18 12:44:33;;;;;;;8.43;3.35;;;20.00;84.30;;;;;;5072622;28;20178;-45
2023/05/18 12:47:00;;;;;;;8.60;3.33;;;19.90;85.70;;;;;;5071158;28;20695;-45
2023/05/18 12:49:25;;;;;;;11.10;2.95;;;19.50;87.10;;;;;;5070758;28;20647;-45
2023/05/18 12:51:54;;;;;;;9.73;2.75;;;19.60;88.00;;;;;;5070602;28;20439;-46
2023/05/18 12:54:28;;;;;;;12.70;3.03;;;19.90;86.40;;;;;;5069692;28;20162;-45
2023/05/18 12:56:59;;;;;;;8.75;3.55;;;19.70;85.60;;;;;;5070654;28;20215;-50
2023/05/18 12:59:26;;;;;;;6.70;3.35;;;19.80;84.90;;;;;;5071252;28;20201;-46
2023/05/18 13:01:53;;;;;;;11.15;3.22;;;19.90;86.30;;;;;;5070651;28;20177;-46
2023/05/18 13:04:18;;;;;;;12.00;5.25;;;19.80;89.10;;;;;;5070422;28;20507;-48
2023/05/18 13:06:44;;;;;;;7.85;3.20;;;;;;;;;;5070517;28;20216;-46
2023/05/18 13:09:15;;;;;;;11.25;4.07;;;19.70;86.90;;;;;;5070233;28;20177;-47
2023/05/18 13:11:46;;;;;;;8.05;3.10;;;19.90;86.00;;;;;;5070163;28;20227;-46